Time;durP1;ratioP1;P1;durP2;ratioP2;P2;SDS_P1;SDS_P2;PMS_P1;PMS_P2;Temp;Humidity;BMP_temperature;BMP_pressure;BME280_temperature;BME280_humidity;BME280_pressure;Samples;Min_cycle;Max_cycle;Signal;HPM_P1;HPM_P2
2021/05/02 00:00:27;;;;;;;16.10;14.30;;;;;;;8.95;76.59;99996.25;106026;1103;78554;-61
2021/05/02 00:02:56;;;;;;;15.90;13.80;;;;;;;8.97;76.52;99988.81;106038;1104;80753;-60
2021/05/02 00:05:01;;;;;;;15.40;13.70;;;;;;;9.01;76.15;99990.09;106074;1097;77593;-61
2021/05/02 00:07:07;;;;;;;16.40;14.60;;;;;;;8.96;76.21;99981.74;106042;1104;77029;-59
2021/05/02 00:09:12;;;;;;;15.60;12.50;;;;;;;8.97;76.23;99987.97;106028;1103;78282;-59
2021/05/02 00:11:20;;;;;;;15.10;12.80;;;;;;;8.95;76.48;99968.48;106023;1104;78489;-59
2021/05/02 00:13:25;;;;;;;15.20;12.70;;;;;;;8.88;76.68;99969.23;105986;1104;77022;-59
2021/05/02 00:15:31;;;;;;;15.30;13.20;;;;;;;8.87;76.38;99966.73;106043;1097;78587;-59
2021/05/02 00:17:43;;;;;;;16.40;13.40;;;;;;;8.86;76.33;99960.51;106066;1104;79292;-59
2021/05/02 00:19:48;;;;;;;17.90;13.60;;;;;;;8.90;76.53;99951.01;106037;1104;77613;-59
2021/05/02 00:21:54;;;;;;;15.60;13.50;;;;;;;8.88;76.45;99953.06;106048;1104;77885;-61
2021/05/02 00:23:59;;;;;;;18.20;14.20;;;;;;;8.93;76.10;99943.59;106060;1104;77654;-61
2021/05/02 00:26:04;;;;;;;18.30;14.50;;;;;;;8.95;76.45;99936.98;106027;1104;78070;-61
2021/05/02 00:28:10;;;;;;;19.20;15.00;;;;;;;9.00;76.22;99948.02;106057;1104;79352;-61
2021/05/02 00:30:22;;;;;;;18.30;14.60;;;;;;;9.03;76.18;99952.20;106045;1105;79425;-62
2021/05/02 00:32:29;;;;;;;16.00;13.50;;;;;;;8.96;76.50;99954.80;106044;1104;78159;-61
2021/05/02 00:34:35;;;;;;;16.00;13.30;;;;;;;8.99;76.51;99959.81;106051;1105;78858;-62
2021/05/02 00:36:41;;;;;;;13.40;11.30;;;;;;;8.94;76.22;99954.16;106028;1104;77188;-61
2021/05/02 00:38:46;;;;;;;14.80;12.50;;;;;;;8.92;76.59;99953.53;106036;1104;78336;-62
2021/05/02 00:40:57;;;;;;;16.60;13.80;;;;;;;8.84;76.68;99954.45;106056;1104;78957;-62
2021/05/02 00:43:08;;;;;;;14.90;12.00;;;;;;;8.89;76.42;99946.66;106037;1104;77041;-60
2021/05/02 00:45:19;;;;;;;16.50;14.10;;;;;;;8.89;76.49;99941.28;106038;1104;78101;-59
2021/05/02 00:47:35;;;;;;;14.00;12.10;;;;;;;8.82;76.54;99947.59;106041;1104;78206;-59
2021/05/02 00:49:52;;;;;;;16.40;13.40;;;;;;;8.90;76.49;99958.25;106048;1104;78549;-59
2021/05/02 00:52:05;;;;;;;18.50;14.40;;;;;;;8.94;76.47;99956.02;106017;1104;77868;-61
2021/05/02 00:54:32;;;;;;;16.80;13.00;;;;;;;8.93;76.26;99954.38;106049;1098;78576;-61
2021/05/02 00:56:58;;;;;;;16.40;13.70;;;;;;;8.95;76.43;99958.55;106044;1104;78717;-59
2021/05/02 00:59:10;;;;;;;18.80;14.60;;;;;;;8.92;76.31;99947.30;106025;1104;78748;-58
2021/05/02 01:01:22;;;;;;;15.60;13.00;;;;;;;8.98;76.42;99949.24;106053;1104;78001;-59
2021/05/02 01:03:27;;;;;;;19.40;14.40;;;;;;;8.94;76.57;99942.55;106040;1104;78515;-61
2021/05/02 01:05:41;;;;;;;16.30;13.00;;;;;;;8.94;76.51;99929.08;106072;1098;78466;-61
2021/05/02 01:07:57;;;;;;;15.20;12.90;;;;;;;8.93;76.43;99933.63;106079;1098;76659;-59
2021/05/02 01:10:10;;;;;;;14.90;12.60;;;;;;;8.95;76.23;99925.38;106010;1105;78241;-59
2021/05/02 01:12:18;;;;;;;15.90;13.70;;;;;;;9.00;76.29;99917.55;106039;1105;77946;-59
2021/05/02 01:14:26;;;;;;;16.10;12.90;;;;;;;8.95;76.20;99925.38;106021;1104;76914;-59
2021/05/02 01:16:34;;;;;;;18.50;14.30;;;;;;;8.93;76.60;99932.82;106056;1105;77269;-59
2021/05/02 01:18:39;;;;;;;18.30;13.30;;;;;;;8.86;76.07;99944.34;106050;1104;78455;-59
2021/05/02 01:20:46;;;;;;;18.90;14.40;;;;;;;8.83;76.78;99952.80;106021;1104;78231;-59
2021/05/02 01:22:58;;;;;;;17.30;13.40;;;;;;;8.88;76.42;99953.06;106043;1104;78060;-62
2021/05/02 01:25:05;;;;;;;20.60;14.60;;;;;;;8.87;76.28;99950.58;106032;1104;77563;-62
2021/05/02 01:27:10;;;;;;;18.40;14.10;;;;;;;8.89;76.48;99937.74;106033;1104;77668;-62
2021/05/02 01:29:16;;;;;;;18.20;14.50;;;;;;;8.88;76.76;99931.52;106025;1104;78404;-62
2021/05/02 01:31:22;;;;;;;21.10;15.50;;;;;;;8.90;76.30;99926.77;106057;1104;76702;-61
2021/05/02 01:33:27;;;;;;;22.90;15.80;;;;;;;8.92;76.34;99925.75;106033;1105;78939;-62
2021/05/02 01:35:32;;;;;;;20.60;14.90;;;;;;;8.94;76.42;99915.61;106022;1105;78189;-62
2021/05/02 01:37:38;;;;;;;19.00;14.00;;;;;;;8.95;76.47;99901.13;106035;1104;79288;-59
2021/05/02 01:39:47;;;;;;;15.10;13.20;;;;;;;8.91;76.73;99897.98;106076;1098;78780;-59
2021/05/02 01:41:52;;;;;;;14.80;12.90;;;;;;;8.91;76.61;99911.44;106047;1103;78079;-59
2021/05/02 01:43:57;;;;;;;12.80;11.50;;;;;;;8.92;76.39;99909.59;106041;1104;77432;-59
2021/05/02 01:46:02;;;;;;;13.50;11.20;;;;;;;8.93;76.43;99887.83;106036;1104;78042;-59
2021/05/02 01:48:10;;;;;;;14.80;11.90;;;;;;;8.88;76.27;99866.03;106039;1104;78746;-59
2021/05/02 01:50:17;;;;;;;14.40;11.30;;;;;;;8.87;76.25;99877.85;106046;1099;77419;-59
2021/05/02 01:52:24;;;;;;;11.70;10.50;;;;;;;8.83;76.40;99863.92;106028;1104;78583;-61
2021/05/02 01:54:32;;;;;;;12.00;10.70;;;;;;;8.80;76.32;99855.38;106068;1105;77815;-61
2021/05/02 01:56:41;;;;;;;14.30;11.70;;;;;;;8.77;76.55;99853.06;106026;1104;77741;-61
2021/05/02 01:58:46;;;;;;;13.50;12.10;;;;;;;8.81;76.21;99848.98;106060;1104;79464;-61
2021/05/02 02:00:55;;;;;;;14.80;12.20;;;;;;;8.72;76.64;99852.81;106057;1103;78546;-61
2021/05/02 02:03:03;;;;;;;14.30;11.70;;;;;;;8.64;76.57;99852.93;106029;1104;77823;-61
2021/05/02 02:05:13;;;;;;;13.60;11.00;;;;;;;8.58;76.94;99861.77;106042;1104;78345;-61
2021/05/02 02:07:20;;;;;;;18.20;12.70;;;;;;;8.57;76.94;99852.84;106088;1098;78435;-60
2021/05/02 02:09:25;;;;;;;14.60;12.20;;;;;;;8.48;77.18;99847.78;106089;1098;77906;-61
2021/05/02 02:11:32;;;;;;;17.20;11.90;;;;;;;8.49;76.77;99849.45;106037;1104;78030;-59
2021/05/02 02:13:38;;;;;;;16.30;12.50;;;;;;;8.42;77.14;99840.45;106030;1104;78452;-62
2021/05/02 02:15:47;;;;;;;15.80;12.70;;;;;;;8.42;77.16;99843.14;106019;1104;78085;-60
2021/05/02 02:17:52;;;;;;;16.40;12.80;;;;;;;8.36;77.09;99838.52;106050;1098;78707;-60
2021/05/02 02:19:58;;;;;;;19.00;14.50;;;;;;;8.36;77.07;99827.75;106042;1104;78147;-61
2021/05/02 02:22:04;;;;;;;23.70;15.00;;;;;;;8.37;76.97;99826.73;106012;1104;78711;-60
2021/05/02 02:24:13;;;;;;;24.70;15.60;;;;;;;8.37;76.84;99830.27;106066;1097;77105;-59
2021/05/02 02:26:31;;;;;;;24.70;15.30;;;;;;;8.40;77.17;99816.44;106085;1098;78831;-61
2021/05/02 02:28:39;;;;;;;22.80;16.20;;;;;;;8.37;77.31;99811.42;106033;1104;78098;-62
2021/05/02 02:30:49;;;;;;;23.90;16.00;;;;;;;8.35;77.73;99797.30;106032;1104;77737;-61
2021/05/02 02:32:58;;;;;;;24.70;15.30;;;;;;;8.32;77.42;99808.48;106058;1105;77201;-59
2021/05/02 02:35:07;;;;;;;23.30;15.90;;;;;;;8.27;78.15;99798.26;106015;1104;79616;-58
2021/05/02 02:37:18;;;;;;;21.20;14.60;;;;;;;8.28;77.75;99788.34;106063;1104;78645;-60
2021/05/02 02:39:23;;;;;;;16.60;13.20;;;;;;;8.32;77.44;99789.64;106029;1104;77153;-61
2021/05/02 02:41:31;;;;;;;20.60;13.70;;;;;;;8.34;77.56;99778.67;106027;1104;77455;-60
2021/05/02 02:43:38;;;;;;;20.00;14.70;;;;;;;8.37;77.64;99773.75;106024;1104;78685;-61
2021/05/02 02:45:43;;;;;;;16.90;13.70;;;;;;;8.40;77.68;99769.84;106023;1104;77454;-62
2021/05/02 02:47:54;;;;;;;15.70;13.10;;;;;;;8.37;77.35;99778.30;106019;1104;78615;-61
2021/05/02 02:50:02;;;;;;;15.00;11.60;;;;;;;8.39;77.54;99776.23;106042;1104;78510;-61
2021/05/02 02:52:08;;;;;;;16.00;12.50;;;;;;;8.42;77.54;99768.63;106034;1105;77403;-61
2021/05/02 02:54:17;;;;;;;16.50;12.90;;;;;;;8.47;77.32;99768.04;106016;1104;77683;-61
2021/05/02 02:56:24;;;;;;;14.80;12.20;;;;;;;8.46;78.13;99759.13;106060;1105;78738;-61
2021/05/02 02:58:40;;;;;;;18.60;13.80;;;;;;;8.36;78.17;99758.61;106054;1098;78526;-62
2021/05/02 03:00:46;;;;;;;25.90;16.90;;;;;;;8.37;78.36;99748.69;106035;1104;78840;-62
2021/05/02 03:02:55;;;;;;;26.80;17.70;;;;;;;8.36;78.32;99745.16;106056;1104;78777;-62
2021/05/02 03:05:02;;;;;;;31.10;19.60;;;;;;;8.40;78.17;99735.70;106071;1098;78886;-62
2021/05/02 03:07:09;;;;;;;33.90;19.40;;;;;;;8.42;77.94;99730.11;106037;1104;77588;-59
2021/05/02 03:09:17;;;;;;;30.80;18.00;;;;;;;8.40;78.11;99735.70;106030;1104;78162;-59
2021/05/02 03:11:22;;;;;;;29.30;16.50;;;;;;;8.35;78.46;99730.03;106046;1099;77341;-59
2021/05/02 03:13:27;;;;;;;30.10;19.00;;;;;;;8.39;78.30;99739.40;106046;1104;77516;-59
2021/05/02 03:15:36;;;;;;;23.20;15.80;;;;;;;8.41;78.16;99736.50;106020;1104;78886;-59
2021/05/02 03:17:54;;;;;;;19.40;15.70;;;;;;;8.47;77.60;99736.58;106027;1104;77552;-58
2021/05/02 03:20:07;;;;;;;17.10;12.80;;;;;;;8.45;78.30;99727.03;106030;1105;78989;-57
2021/05/02 03:22:26;;;;;;;14.50;12.40;;;;;;;8.44;78.03;99726.20;106043;1104;79483;-60
2021/05/02 03:24:36;;;;;;;15.60;13.30;;;;;;;8.44;78.16;99739.66;106049;1104;78728;-60
2021/05/02 03:26:42;;;;;;;17.90;13.40;;;;;;;8.38;78.32;99718.88;106029;1104;77252;-58
2021/05/02 03:28:54;;;;;;;22.30;15.80;;;;;;;8.42;78.02;99697.81;106057;1104;78360;-59
2021/05/02 03:31:03;;;;;;;19.40;15.20;;;;;;;8.47;78.09;99690.83;106042;1104;78783;-59
2021/05/02 03:33:14;;;;;;;25.80;16.90;;;;;;;8.53;77.92;99694.60;106037;1104;78489;-62
2021/05/02 03:35:27;;;;;;;28.20;18.20;;;;;;;8.51;78.47;99696.66;106018;1105;77777;-62
2021/05/02 03:37:36;;;;;;;24.70;17.40;;;;;;;8.56;77.90;99704.98;106028;1104;77493;-62
2021/05/02 03:39:42;;;;;;;27.10;18.20;;;;;;;8.55;77.91;99693.38;106059;1104;78182;-62
2021/05/02 03:41:47;;;;;;;22.00;15.80;;;;;;;8.56;78.21;99695.05;106041;1104;77585;-62
2021/05/02 03:43:53;;;;;;;19.00;14.70;;;;;;;8.59;78.12;99683.91;106046;1104;78888;-61
2021/05/02 03:45:58;;;;;;;15.20;12.30;;;;;;;8.60;77.99;99673.94;106059;1104;78605;-61
2021/05/02 03:48:04;;;;;;;17.50;13.40;;;;;;;8.62;77.95;99667.37;106066;1104;77991;-59
2021/05/02 03:50:12;;;;;;;16.50;13.30;;;;;;;8.61;78.07;99670.23;106030;1104;78862;-59
2021/05/02 03:52:17;;;;;;;15.80;12.90;;;;;;;8.58;78.38;99674.16;106040;1104;78773;-58
2021/05/02 03:54:22;;;;;;;14.30;12.70;;;;;;;8.63;77.88;99674.39;106033;1104;80093;-59
2021/05/02 03:56:40;;;;;;;18.10;14.20;;;;;;;8.63;78.22;99660.09;106067;1104;77572;-60
2021/05/02 03:58:44;;;;;;;18.30;15.10;;;;;;;8.66;78.13;99665.94;106079;1104;78300;-58
2021/05/02 04:00:50;;;;;;;20.00;14.40;;;;;;;8.68;78.02;99671.14;106040;1104;76982;-58
2021/05/02 04:02:55;;;;;;;14.30;12.10;;;;;;;8.66;78.21;99667.78;106025;1100;77974;-63
2021/05/02 04:05:00;;;;;;;14.20;11.50;;;;;;;8.65;78.12;99663.45;106067;1104;77493;-62
2021/05/02 04:07:07;;;;;;;14.70;12.80;;;;;;;8.65;78.59;99675.02;106025;1104;79098;-59
2021/05/02 04:09:17;;;;;;;12.50;11.00;;;;;;;8.66;78.28;99675.86;106054;1104;79402;-58
2021/05/02 04:11:25;;;;;;;14.00;10.60;;;;;;;8.71;78.11;99670.72;106062;1104;78202;-60
2021/05/02 04:13:30;;;;;;;13.90;11.30;;;;;;;8.73;77.99;99674.91;106021;1098;76793;-61
2021/05/02 04:15:35;;;;;;;14.20;12.10;;;;;;;8.78;78.02;99683.23;106036;1104;77831;-61
2021/05/02 04:17:40;;;;;;;13.70;12.10;;;;;;;8.78;77.94;99667.08;106030;1105;78766;-61
2021/05/02 04:19:47;;;;;;;12.80;10.80;;;;;;;8.80;77.90;99678.48;106034;1104;78611;-61
2021/05/02 04:21:52;;;;;;;13.20;11.60;;;;;;;8.82;78.03;99683.66;106073;1104;76901;-59
2021/05/02 04:24:01;;;;;;;14.00;11.60;;;;;;;8.86;77.98;99680.39;106034;1104;78550;-59
2021/05/02 04:26:06;;;;;;;14.00;11.60;;;;;;;8.84;77.97;99682.42;106034;1104;79861;-59
2021/05/02 04:28:11;;;;;;;13.80;12.10;;;;;;;8.86;78.08;99685.78;106009;1105;78018;-61
2021/05/02 04:30:18;;;;;;;13.40;11.00;;;;;;;8.83;78.21;99667.31;106033;1104;78822;-61
2021/05/02 04:32:26;;;;;;;13.60;11.40;;;;;;;8.85;78.03;99661.72;106041;1104;79280;-62
2021/05/02 04:34:31;;;;;;;12.80;11.40;;;;;;;8.90;78.10;99651.19;106013;1104;76733;-61
2021/05/02 04:36:36;;;;;;;12.90;11.50;;;;;;;8.94;78.10;99638.16;106066;1104;79407;-60
2021/05/02 04:38:41;;;;;;;14.00;11.50;;;;;;;8.96;77.90;99633.41;106028;1104;78220;-61
2021/05/02 04:40:46;;;;;;;15.90;12.70;;;;;;;9.00;77.82;99642.77;106021;1104;77754;-60
2021/05/02 04:42:54;;;;;;;15.10;11.70;;;;;;;8.99;78.02;99635.70;106046;1099;77943;-59
2021/05/02 04:44:59;;;;;;;15.70;11.60;;;;;;;9.03;78.11;99636.98;106033;1104;78215;-59
2021/05/02 04:47:05;;;;;;;16.70;12.10;;;;;;;9.03;78.15;99639.69;106038;1104;79678;-61
2021/05/02 04:49:10;;;;;;;14.70;11.40;;;;;;;8.96;78.13;99626.16;106022;1104;79331;-61
2021/05/02 04:51:19;;;;;;;15.50;12.60;;;;;;;8.96;78.11;99625.32;106049;1104;78158;-61
2021/05/02 04:53:24;;;;;;;15.20;11.70;;;;;;;9.00;78.39;99619.36;106063;1097;78137;-58
2021/05/02 04:55:30;;;;;;;12.90;10.80;;;;;;;9.00;78.27;99611.28;106044;1105;78851;-58
2021/05/02 04:57:35;;;;;;;14.90;12.20;;;;;;;8.95;78.52;99612.91;106051;1104;78284;-61
2021/05/02 04:59:40;;;;;;;15.40;12.20;;;;;;;8.97;78.55;99605.45;106046;1105;78511;-61
2021/05/02 05:01:46;;;;;;;15.20;12.40;;;;;;;9.00;78.32;99600.50;106044;1104;77251;-58
2021/05/02 05:03:54;;;;;;;13.90;11.60;;;;;;;9.08;78.56;99602.20;106038;1104;77136;-58
2021/05/02 05:05:59;;;;;;;13.60;11.20;;;;;;;9.06;78.26;99612.34;106041;1104;78859;-58
2021/05/02 05:08:06;;;;;;;12.70;11.00;;;;;;;9.07;78.28;99612.14;106013;1105;77457;-58
2021/05/02 05:10:13;;;;;;;14.70;11.10;;;;;;;9.12;78.25;99616.95;106046;1105;78437;-59
2021/05/02 05:12:18;;;;;;;13.00;11.30;;;;;;;9.19;78.04;99621.34;106049;1104;77142;-59
2021/05/02 05:14:23;;;;;;;15.20;10.70;;;;;;;9.24;77.95;99609.95;106013;1099;76919;-58
2021/05/02 05:16:29;;;;;;;12.40;10.80;;;;;;;9.26;77.86;99597.09;106022;1104;78851;-59
2021/05/02 05:18:34;;;;;;;11.80;10.20;;;;;;;9.33;77.86;99579.94;106037;1104;78304;-58
2021/05/02 05:20:39;;;;;;;13.10;10.70;;;;;;;9.35;77.78;99574.34;106047;1105;78321;-58
2021/05/02 05:22:47;;;;;;;11.60;9.90;;;;;;;9.40;77.68;99561.08;106042;1104;79435;-58
2021/05/02 05:24:53;;;;;;;15.60;11.70;;;;;;;9.42;78.08;99564.43;106059;1104;78511;-58
2021/05/02 05:26:58;;;;;;;15.80;11.10;;;;;;;9.53;77.63;99558.45;106014;1104;77940;-60
2021/05/02 05:29:03;;;;;;;14.60;12.10;;;;;;;9.50;77.66;99561.55;106056;1104;78544;-61
2021/05/02 05:31:08;;;;;;;16.60;12.90;;;;;;;9.54;77.61;99560.09;106044;1104;78271;-62
2021/05/02 05:33:13;;;;;;;14.50;10.90;;;;;;;9.64;77.56;99563.22;106059;1104;77942;-60
2021/05/02 05:35:18;;;;;;;12.80;10.50;;;;;;;9.64;77.54;99563.22;106040;1104;77445;-60
2021/05/02 05:37:24;;;;;;;12.90;11.60;;;;;;;9.68;77.43;99559.09;106052;1104;77694;-60
2021/05/02 05:39:29;;;;;;;13.40;11.20;;;;;;;9.73;77.01;99562.01;106014;1104;78653;-60
2021/05/02 05:41:36;;;;;;;13.50;11.60;;;;;;;9.73;77.11;99556.61;106060;1104;78986;-59
2021/05/02 05:43:45;;;;;;;15.80;12.80;;;;;;;9.68;77.11;99559.09;106040;1105;78130;-59
2021/05/02 05:45:50;;;;;;;14.30;11.60;;;;;;;9.75;77.20;99551.03;106033;1104;77732;-59
2021/05/02 05:47:55;;;;;;;13.60;11.30;;;;;;;9.78;77.02;99543.34;106050;1104;78271;-59
2021/05/02 05:50:00;;;;;;;13.60;11.80;;;;;;;9.81;76.89;99542.94;106026;1104;78649;-59
2021/05/02 05:52:09;;;;;;;12.10;10.80;;;;;;;9.79;77.08;99527.99;106047;1104;77865;-61
2021/05/02 05:54:14;;;;;;;12.40;11.10;;;;;;;9.78;76.86;99529.86;106030;1104;77522;-60
2021/05/02 05:56:19;;;;;;;13.70;11.00;;;;;;;9.81;76.91;99521.36;106039;1104;78691;-60
2021/05/02 05:58:24;;;;;;;11.80;10.60;;;;;;;9.83;76.60;99511.18;106039;1105;78498;-60
2021/05/02 06:00:29;;;;;;;12.10;10.80;;;;;;;9.81;76.80;99507.03;106038;1104;78584;-60
2021/05/02 06:02:34;;;;;;;12.40;11.10;;;;;;;9.76;76.85;99515.75;106013;1104;78776;-59
2021/05/02 06:04:39;;;;;;;12.00;10.70;;;;;;;9.78;77.01;99510.98;106052;1104;77945;-59
2021/05/02 06:06:44;;;;;;;12.10;10.80;;;;;;;9.80;76.95;99511.63;106043;1104;78562;-59
2021/05/02 06:08:49;;;;;;;13.70;10.90;;;;;;;9.82;76.59;99501.45;105992;1104;78228;-58
2021/05/02 06:10:57;;;;;;;12.00;10.60;;;;;;;9.80;76.85;99502.70;106033;1105;77823;-58
2021/05/02 06:13:05;;;;;;;12.80;10.40;;;;;;;9.80;76.70;99495.44;106051;1104;78730;-58
2021/05/02 06:15:14;;;;;;;10.70;8.90;;;;;;;9.78;77.03;99492.09;106042;1098;77240;-58
2021/05/02 06:17:23;;;;;;;12.40;10.90;;;;;;;9.81;76.88;99483.59;106041;1104;77451;-60
2021/05/02 06:19:28;;;;;;;14.90;11.70;;;;;;;9.72;77.11;99478.63;106030;1104;78369;-60
2021/05/02 06:21:34;;;;;;;13.00;10.30;;;;;;;9.75;77.30;99486.30;106044;1104;78672;-61
2021/05/02 06:23:39;;;;;;;11.70;9.90;;;;;;;9.78;76.93;99475.91;106044;1104;77314;-59
2021/05/02 06:25:44;;;;;;;12.90;10.50;;;;;;;9.78;77.04;99470.52;106074;1099;77962;-59
2021/05/02 06:27:49;;;;;;;15.00;12.30;;;;;;;9.84;77.13;99458.91;106048;1105;78537;-59
2021/05/02 06:29:54;;;;;;;14.30;12.50;;;;;;;9.87;76.87;99441.47;106057;1104;77524;-58
2021/05/02 06:31:59;;;;;;;17.10;11.80;;;;;;;9.96;77.00;99435.67;106016;1105;77605;-60
2021/05/02 06:34:04;;;;;;;16.20;12.50;;;;;;;9.99;76.83;99427.16;106044;1104;79236;-59
2021/05/02 06:36:13;;;;;;;17.80;13.60;;;;;;;10.04;76.68;99424.66;106029;1104;78534;-59
2021/05/02 06:38:20;;;;;;;17.20;13.00;;;;;;;10.15;76.77;99425.08;106028;1104;78435;-60
2021/05/02 06:40:25;;;;;;;19.80;13.30;;;;;;;10.22;76.63;99417.82;106015;1104;78874;-59
2021/05/02 06:42:30;;;;;;;18.80;13.20;;;;;;;10.24;76.59;99407.64;106039;1104;77311;-60
2021/05/02 06:44:35;;;;;;;21.30;14.00;;;;;;;10.30;76.50;99401.40;106048;1104;77250;-59
2021/05/02 06:46:40;;;;;;;15.50;12.00;;;;;;;10.29;76.10;99402.42;106051;1104;78570;-58
2021/05/02 06:48:45;;;;;;;15.80;13.10;;;;;;;10.29;76.25;99388.93;106041;1104;77310;-58
2021/05/02 06:50:51;;;;;;;21.50;15.30;;;;;;;10.33;76.26;99373.98;106018;1104;77848;-58
2021/05/02 06:52:59;;;;;;;23.50;15.60;;;;;;;10.38;76.06;99374.97;106054;1104;78427;-59
2021/05/02 06:55:06;;;;;;;23.80;15.50;;;;;;;10.42;75.99;99359.19;106030;1104;77203;-60
2021/05/02 06:57:12;;;;;;;15.70;12.50;;;;;;;10.41;75.58;99358.34;106061;1105;77317;-60
2021/05/02 06:59:17;;;;;;;18.00;13.10;;;;;;;10.39;75.93;99352.34;106047;1104;78442;-60
2021/05/02 07:01:23;;;;;;;21.00;14.10;;;;;;;10.34;75.94;99351.33;106044;1105;77995;-59
2021/05/02 07:03:28;;;;;;;17.10;12.60;;;;;;;10.36;75.85;99349.23;106056;1104;77994;-60
2021/05/02 07:05:33;;;;;;;13.30;11.00;;;;;;;10.32;75.84;99343.45;106052;1098;78327;-61
2021/05/02 07:07:38;;;;;;;11.20;10.00;;;;;;;10.25;75.73;99328.30;106053;1104;79417;-60
2021/05/02 07:09:44;;;;;;;12.30;11.00;;;;;;;10.31;75.71;99335.55;106042;1104;78503;-58
2021/05/02 07:11:49;;;;;;;10.80;9.70;;;;;;;10.30;75.61;99331.22;106036;1104;77112;-59
2021/05/02 07:13:54;;;;;;;16.20;11.80;;;;;;;10.34;75.67;99327.86;106044;1104;78508;-58
2021/05/02 07:16:00;;;;;;;14.40;11.60;;;;;;;10.38;75.64;99328.27;106052;1104;76973;-60
2021/05/02 07:18:05;;;;;;;16.00;12.40;;;;;;;10.38;75.78;99314.77;106076;1098;78071;-60
2021/05/02 07:20:15;;;;;;;12.80;11.50;;;;;;;10.40;75.70;99312.69;106016;1104;79663;-60
2021/05/02 07:22:22;;;;;;;11.90;10.30;;;;;;;10.41;75.52;99309.75;106025;1104;77994;-59
2021/05/02 07:24:28;;;;;;;11.80;10.20;;;;;;;10.45;75.34;99305.59;106040;1104;78888;-60
2021/05/02 07:26:36;;;;;;;11.90;10.50;;;;;;;10.49;75.45;99295.20;106039;1104;78017;-60
2021/05/02 07:28:41;;;;;;;12.50;10.60;;;;;;;10.56;75.45;99291.41;106040;1099;78454;-60
2021/05/02 07:30:49;;;;;;;12.70;9.90;;;;;;;10.54;75.27;99276.47;106014;1104;78844;-60
2021/05/02 07:32:57;;;;;;;15.80;12.00;;;;;;;10.55;75.25;99283.52;106053;1104;78696;-60
2021/05/02 07:35:03;;;;;;;14.40;10.90;;;;;;;10.49;75.22;99269.00;106031;1104;78623;-60
2021/05/02 07:37:09;;;;;;;12.30;10.80;;;;;;;10.45;75.28;99245.36;106041;1104;77418;-59
2021/05/02 07:39:15;;;;;;;12.60;10.80;;;;;;;10.45;75.30;99229.16;106044;1104;79028;-58
2021/05/02 07:41:20;;;;;;;17.20;12.70;;;;;;;10.40;75.32;99229.83;106046;1104;77781;-59
2021/05/02 07:43:26;;;;;;;15.40;11.00;;;;;;;10.42;75.60;99229.59;106046;1104;77715;-60
2021/05/02 07:45:43;;;;;;;23.50;15.80;;;;;;;10.42;75.52;99218.80;106083;1098;78691;-59
2021/05/02 07:47:52;;;;;;;16.30;11.20;;;;;;;10.42;75.71;99225.03;106092;1098;78559;-59
2021/05/02 07:49:57;;;;;;;12.30;10.40;;;;;;;10.39;76.22;99217.36;106036;1104;79453;-59
2021/05/02 07:52:02;;;;;;;15.80;10.80;;;;;;;10.31;76.33;99214.08;106056;1104;78720;-59
2021/05/02 07:54:09;;;;;;;13.00;11.40;;;;;;;10.24;77.00;99207.91;106034;1099;77626;-62
2021/05/02 07:56:14;;;;;;;12.90;10.20;;;;;;;10.22;76.48;99205.41;106037;1104;78618;-57
2021/05/02 07:58:22;;;;;;;13.10;9.60;;;;;;;10.26;76.65;99192.31;106032;1104;77845;-59
2021/05/02 08:00:28;;;;;;;13.30;10.30;;;;;;;10.27;76.78;99199.38;106039;1105;78878;-59
2021/05/02 08:02:40;;;;;;;13.10;11.20;;;;;;;10.30;76.81;99201.66;106016;1104;78258;-58
2021/05/02 08:04:45;;;;;;;12.70;11.00;;;;;;;10.26;76.79;99182.35;106048;1104;79045;-59
2021/05/02 08:06:52;;;;;;;11.60;10.40;;;;;;;10.25;76.88;99185.25;106062;1104;77082;-60
2021/05/02 08:08:58;;;;;;;11.70;10.30;;;;;;;10.22;77.12;99180.31;106023;1104;78044;-60
2021/05/02 08:11:03;;;;;;;9.90;8.70;;;;;;;10.22;77.14;99166.82;106020;1104;78463;-58
2021/05/02 08:13:08;;;;;;;12.00;10.50;;;;;;;10.24;76.97;99162.86;106007;1105;77371;-58
2021/05/02 08:15:14;;;;;;;12.30;10.80;;;;;;;10.26;76.99;99162.63;106039;1104;78793;-59
2021/05/02 08:17:22;;;;;;;12.40;10.80;;;;;;;10.22;77.29;99164.13;106014;1105;78017;-58
2021/05/02 08:19:27;;;;;;;11.90;10.50;;;;;;;10.22;77.47;99177.62;106056;1104;77313;-58
2021/05/02 08:21:32;;;;;;;11.70;10.60;;;;;;;10.19;77.43;99159.16;106015;1105;77243;-58
2021/05/02 08:23:38;;;;;;;11.10;9.80;;;;;;;10.17;77.46;99145.86;106037;1099;78063;-58
2021/05/02 08:25:43;;;;;;;11.70;10.40;;;;;;;10.17;77.75;99137.77;106018;1104;78675;-58
2021/05/02 08:27:49;;;;;;;10.80;9.60;;;;;;;10.14;78.32;99132.80;106040;1104;78587;-59
2021/05/02 08:29:54;;;;;;;11.40;9.00;;;;;;;10.16;77.80;99127.20;106040;1104;78346;-61
2021/05/02 08:31:59;;;;;;;12.00;10.20;;;;;;;10.14;78.67;99121.17;106044;1104;77459;-59
2021/05/02 08:34:05;;;;;;;12.60;11.00;;;;;;;10.07;78.23;99115.81;106037;1104;79740;-59
2021/05/02 08:36:10;;;;;;;14.50;11.30;;;;;;;10.11;78.46;99113.52;106030;1104;77470;-59
2021/05/02 08:38:18;;;;;;;11.80;10.50;;;;;;;10.14;78.37;99113.91;106027;1104;78642;-61
2021/05/02 08:40:23;;;;;;;12.50;10.90;;;;;;;10.12;78.61;99109.75;106031;1104;78411;-61
2021/05/02 08:42:28;;;;;;;13.20;10.80;;;;;;;10.08;78.74;99118.27;106058;1105;76793;-58
2021/05/02 08:44:34;;;;;;;11.90;10.70;;;;;;;10.13;78.59;99111.45;106059;1105;78581;-59
2021/05/02 08:46:40;;;;;;;11.50;10.30;;;;;;;10.11;78.82;99106.22;106086;1098;78201;-59
2021/05/02 08:48:49;;;;;;;12.10;10.50;;;;;;;10.08;79.07;99102.09;106017;1104;78617;-59
2021/05/02 08:50:57;;;;;;;11.40;10.20;;;;;;;10.06;79.49;99106.05;106058;1104;78025;-59
2021/05/02 08:53:05;;;;;;;13.10;11.40;;;;;;;10.05;79.40;99096.32;106033;1105;77663;-62
2021/05/02 08:55:11;;;;;;;12.70;11.20;;;;;;;10.02;79.20;99094.05;106041;1104;78414;-62
2021/05/02 08:57:20;;;;;;;12.60;11.20;;;;;;;10.05;79.35;99094.42;106048;1104;78597;-62
2021/05/02 08:59:25;;;;;;;12.40;10.40;;;;;;;9.95;79.98;99074.37;106005;1104;77513;-62
2021/05/02 09:01:36;;;;;;;12.30;11.00;;;;;;;9.90;79.89;99080.42;106011;1104;78285;-60
2021/05/02 09:03:43;;;;;;;12.80;11.30;;;;;;;10.01;79.79;99086.98;106039;1104;78460;-58
2021/05/02 09:05:53;;;;;;;12.20;10.80;;;;;;;10.02;80.09;99072.47;106056;1104;77886;-60
2021/05/02 09:07:58;;;;;;;13.00;11.60;;;;;;;9.98;80.19;99061.28;106042;1104;78050;-58
2021/05/02 09:10:03;;;;;;;13.40;11.90;;;;;;;9.95;80.00;99056.31;106049;1104;77804;-60
2021/05/02 09:12:24;;;;;;;14.50;12.20;;;;;;;9.96;79.86;99057.15;106013;1104;78835;-60
2021/05/02 09:14:32;;;;;;;12.50;11.10;;;;;;;10.04;79.96;99065.81;106041;1105;78312;-58
2021/05/02 09:16:50;;;;;;;12.40;11.20;;;;;;;9.99;79.82;99084.53;106031;1104;78935;-61
2021/05/02 09:19:00;;;;;;;13.00;11.70;;;;;;;9.98;80.08;99090.13;106079;1098;77466;-62
2021/05/02 09:21:08;;;;;;;12.20;11.00;;;;;;;9.90;80.26;99074.20;106059;1098;77480;-63
2021/05/02 09:23:18;;;;;;;14.00;12.00;;;;;;;9.93;80.05;99065.67;106039;1104;78657;-62
2021/05/02 09:25:23;;;;;;;12.00;10.70;;;;;;;9.94;80.11;99059.25;106046;1104;77500;-65
2021/05/02 09:27:28;;;;;;;13.20;11.40;;;;;;;9.92;80.21;99056.75;106002;1104;77710;-65
2021/05/02 09:29:35;;;;;;;16.80;11.90;;;;;;;9.99;80.61;99062.94;106022;1104;78513;-66
2021/05/02 09:31:43;;;;;;;14.00;12.60;;;;;;;9.98;80.57;99055.05;106032;1105;78682;-59
2021/05/02 09:33:49;;;;;;;13.50;11.30;;;;;;;9.92;80.54;99064.84;106058;1104;78115;-66
2021/05/02 09:35:54;;;;;;;12.40;11.10;;;;;;;9.85;80.98;99066.77;106053;1104;77719;-68
2021/05/02 09:38:16;;;;;;;14.30;12.20;;;;;;;9.80;81.29;99052.28;106032;1104;79020;-67
2021/05/02 09:40:21;;;;;;;15.50;11.40;;;;;;;9.82;80.88;99042.09;106031;1104;78215;-65
2021/05/02 09:42:32;;;;;;;14.90;11.20;;;;;;;9.85;80.99;99022.78;106041;1104;78902;-59